KGRF/GRF METAR and TAF weather

Enter ICAO airport designator
Station Type Date Time Source
KGRF METAR 2021/09/16 09:58 UTC NOAA

KGRF 160958Z AUTO 13005KT 10SM CLR 05/02 A3013 RMK AO2 SLP207 T00520019 $


Station Type Date Time Source
KGRF Decoded METAR 2021/09/16 09:58 UTC NOAA

Fort Lewis / Gray U. S. Army Airfield, WA, United States (KGRF) 47-07N 122-33W 87M
Sep 16, 2021 - 05:58 AM EDT / 2021.09.16 0958 UTC
Wind: from the SE (130 degrees) at 6 MPH (5 KT):0
Visibility: 10 mile(s):0
Sky conditions: clear
Temperature: 41.4 F (5.2 C)
Dew Point: 35.4 F (1.9 C)
Relative Humidity: 79%
Pressure (altimeter): 30.13 in. Hg (1020 hPa)
ob: KGRF 160958Z AUTO 13005KT 10SM CLR 05/02 A3013 RMK AO2 SLP207 T00520019
cycle: 10

Station Type Date Time Source
KGRF TAF 2021/09/16 05:03 UTC NOAA

TAF KGRF 160500Z 1605/1711 08005KT 9999 SCT050 QNH3007INS
BECMG 1610/1611 01012KT 9999 SKC QNH2996INS
BECMG 1710/1711 19010KT 9999 SCT030 OVC060 QNH2993INS TX20/1623Z TN07/1614Z

Example: see airport list